sensor_id;sensor_type;location;lat;lon;timestamp;P1;durP1;ratioP1;P2;durP2;ratioP2
64826;SDS011;51265;53.972;12.286;2022-10-16T00:00:35;8.35;;;3.78;;
64826;SDS011;51265;53.972;12.286;2022-10-16T00:03:02;5.30;;;3.80;;
64826;SDS011;51265;53.972;12.286;2022-10-16T00:05:28;4.90;;;4.18;;
64826;SDS011;51265;53.972;12.286;2022-10-16T00:07:54;4.70;;;4.18;;
64826;SDS011;51265;53.972;12.286;2022-10-16T00:10:20;4.53;;;3.47;;
64826;SDS011;51265;53.972;12.286;2022-10-16T00:12:46;5.13;;;3.70;;
64826;SDS011;51265;53.972;12.286;2022-10-16T00:15:13;7.60;;;4.22;;
64826;SDS011;51265;53.972;12.286;2022-10-16T00:17:38;4.82;;;3.78;;
64826;SDS011;51265;53.972;12.286;2022-10-16T00:20:04;5.15;;;4.28;;
64826;SDS011;51265;53.972;12.286;2022-10-16T00:22:31;6.22;;;4.35;;
64826;SDS011;51265;53.972;12.286;2022-10-16T00:24:56;4.55;;;3.47;;
64826;SDS011;51265;53.972;12.286;2022-10-16T00:27:22;6.15;;;4.00;;
64826;SDS011;51265;53.972;12.286;2022-10-16T00:29:51;6.22;;;3.65;;
64826;SDS011;51265;53.972;12.286;2022-10-16T00:32:19;6.95;;;4.20;;
64826;SDS011;51265;53.972;12.286;2022-10-16T00:34:45;5.10;;;4.00;;
64826;SDS011;51265;53.972;12.286;2022-10-16T00:37:12;6.05;;;4.40;;
64826;SDS011;51265;53.972;12.286;2022-10-16T00:39:38;5.03;;;4.32;;
64826;SDS011;51265;53.972;12.286;2022-10-16T00:42:04;5.97;;;4.50;;
64826;SDS011;51265;53.972;12.286;2022-10-16T00:44:41;8.88;;;4.95;;
64826;SDS011;51265;53.972;12.286;2022-10-16T00:50:11;6.80;;;4.80;;
64826;SDS011;51265;53.972;12.286;2022-10-16T00:52:43;6.57;;;5.50;;
64826;SDS011;51265;53.972;12.286;2022-10-16T00:55:12;10.75;;;4.93;;
64826;SDS011;51265;53.972;12.286;2022-10-16T00:57:38;7.60;;;5.60;;
64826;SDS011;51265;53.972;12.286;2022-10-16T01:00:05;6.40;;;5.70;;
64826;SDS011;51265;53.972;12.286;2022-10-16T01:02:33;8.55;;;5.30;;
64826;SDS011;51265;53.972;12.286;2022-10-16T01:04:59;8.73;;;6.30;;
64826;SDS011;51265;53.972;12.286;2022-10-16T01:07:32;9.60;;;6.32;;
64826;SDS011;51265;53.972;12.286;2022-10-16T01:13:07;8.35;;;6.38;;
64826;SDS011;51265;53.972;12.286;2022-10-16T01:15:47;12.32;;;6.75;;
64826;SDS011;51265;53.972;12.286;2022-10-16T01:21:05;10.02;;;7.38;;
64826;SDS011;51265;53.972;12.286;2022-10-16T01:23:36;9.25;;;7.80;;
64826;SDS011;51265;53.972;12.286;2022-10-16T01:29:22;13.35;;;7.70;;
64826;SDS011;51265;53.972;12.286;2022-10-16T01:31:56;8.82;;;7.40;;
64826;SDS011;51265;53.972;12.286;2022-10-16T01:34:32;10.27;;;8.00;;
64826;SDS011;51265;53.972;12.286;2022-10-16T01:37:04;11.15;;;8.38;;
64826;SDS011;51265;53.972;12.286;2022-10-16T01:39:35;15.80;;;9.27;;
64826;SDS011;51265;53.972;12.286;2022-10-16T01:42:24;13.90;;;9.77;;
64826;SDS011;51265;53.972;12.286;2022-10-16T01:44:55;14.35;;;9.30;;
64826;SDS011;51265;53.972;12.286;2022-10-16T01:47:24;13.45;;;9.48;;
64826;SDS011;51265;53.972;12.286;2022-10-16T01:49:52;13.82;;;9.30;;
64826;SDS011;51265;53.972;12.286;2022-10-16T01:52:21;14.07;;;9.38;;
64826;SDS011;51265;53.972;12.286;2022-10-16T01:54:52;11.75;;;9.50;;
64826;SDS011;51265;53.972;12.286;2022-10-16T01:57:21;13.23;;;8.75;;
64826;SDS011;51265;53.972;12.286;2022-10-16T01:59:50;11.55;;;9.20;;
64826;SDS011;51265;53.972;12.286;2022-10-16T02:02:20;14.68;;;9.10;;
64826;SDS011;51265;53.972;12.286;2022-10-16T02:07:52;9.50;;;7.78;;
64826;SDS011;51265;53.972;12.286;2022-10-16T02:10:18;7.97;;;6.65;;
64826;SDS011;51265;53.972;12.286;2022-10-16T02:12:45;10.30;;;6.95;;
64826;SDS011;51265;53.972;12.286;2022-10-16T02:15:21;10.15;;;7.35;;
64826;SDS011;51265;53.972;12.286;2022-10-16T02:17:46;11.13;;;7.45;;
64826;SDS011;51265;53.972;12.286;2022-10-16T02:20:13;10.18;;;6.78;;
64826;SDS011;51265;53.972;12.286;2022-10-16T02:22:40;12.82;;;6.85;;
64826;SDS011;51265;53.972;12.286;2022-10-16T02:25:17;11.25;;;7.03;;
64826;SDS011;51265;53.972;12.286;2022-10-16T02:27:51;8.25;;;6.53;;
64826;SDS011;51265;53.972;12.286;2022-10-16T02:30:30;15.55;;;6.68;;
64826;SDS011;51265;53.972;12.286;2022-10-16T02:33:00;8.25;;;6.90;;
64826;SDS011;51265;53.972;12.286;2022-10-16T02:35:30;8.77;;;7.05;;
64826;SDS011;51265;53.972;12.286;2022-10-16T02:37:57;9.18;;;6.95;;
64826;SDS011;51265;53.972;12.286;2022-10-16T02:40:24;9.35;;;7.80;;
64826;SDS011;51265;53.972;12.286;2022-10-16T02:42:52;10.77;;;7.93;;
64826;SDS011;51265;53.972;12.286;2022-10-16T02:45:19;10.48;;;7.57;;
64826;SDS011;51265;53.972;12.286;2022-10-16T02:47:46;12.38;;;8.27;;
64826;SDS011;51265;53.972;12.286;2022-10-16T02:50:12;12.98;;;8.10;;
64826;SDS011;51265;53.972;12.286;2022-10-16T02:52:38;10.38;;;8.35;;
64826;SDS011;51265;53.972;12.286;2022-10-16T02:55:04;11.73;;;9.13;;
64826;SDS011;51265;53.972;12.286;2022-10-16T02:57:30;12.48;;;8.48;;
64826;SDS011;51265;53.972;12.286;2022-10-16T02:59:57;11.30;;;8.45;;
64826;SDS011;51265;53.972;12.286;2022-10-16T03:02:23;16.00;;;9.57;;
64826;SDS011;51265;53.972;12.286;2022-10-16T03:04:49;16.80;;;7.82;;
64826;SDS011;51265;53.972;12.286;2022-10-16T03:07:15;12.20;;;8.13;;
64826;SDS011;51265;53.972;12.286;2022-10-16T03:09:41;12.23;;;8.35;;
64826;SDS011;51265;53.972;12.286;2022-10-16T03:12:07;10.55;;;8.15;;
64826;SDS011;51265;53.972;12.286;2022-10-16T03:14:34;12.40;;;7.65;;
64826;SDS011;51265;53.972;12.286;2022-10-16T03:17:00;13.18;;;7.85;;
64826;SDS011;51265;53.972;12.286;2022-10-16T03:19:26;12.18;;;7.40;;
64826;SDS011;51265;53.972;12.286;2022-10-16T03:21:51;14.85;;;7.40;;
64826;SDS011;51265;53.972;12.286;2022-10-16T03:24:17;8.63;;;6.68;;
64826;SDS011;51265;53.972;12.286;2022-10-16T03:26:43;9.30;;;6.80;;
64826;SDS011;51265;53.972;12.286;2022-10-16T03:29:09;9.60;;;6.72;;
64826;SDS011;51265;53.972;12.286;2022-10-16T03:31:35;13.60;;;7.03;;
64826;SDS011;51265;53.972;12.286;2022-10-16T03:34:01;10.13;;;6.90;;
64826;SDS011;51265;53.972;12.286;2022-10-16T03:36:27;8.85;;;6.47;;
64826;SDS011;51265;53.972;12.286;2022-10-16T03:38:53;11.82;;;6.70;;
64826;SDS011;51265;53.972;12.286;2022-10-16T03:41:19;11.65;;;6.40;;
64826;SDS011;51265;53.972;12.286;2022-10-16T03:43:45;12.70;;;6.18;;
64826;SDS011;51265;53.972;12.286;2022-10-16T03:46:10;10.02;;;6.57;;
64826;SDS011;51265;53.972;12.286;2022-10-16T03:48:36;9.88;;;6.63;;
64826;SDS011;51265;53.972;12.286;2022-10-16T03:51:02;8.68;;;6.68;;
64826;SDS011;51265;53.972;12.286;2022-10-16T03:53:29;12.93;;;6.72;;
64826;SDS011;51265;53.972;12.286;2022-10-16T03:55:54;10.57;;;6.80;;
64826;SDS011;51265;53.972;12.286;2022-10-16T03:58:20;10.20;;;6.63;;
64826;SDS011;51265;53.972;12.286;2022-10-16T04:00:46;11.40;;;6.55;;
64826;SDS011;51265;53.972;12.286;2022-10-16T04:03:15;10.07;;;6.90;;
64826;SDS011;51265;53.972;12.286;2022-10-16T04:05:41;14.48;;;6.82;;
64826;SDS011;51265;53.972;12.286;2022-10-16T04:08:07;12.50;;;7.43;;
64826;SDS011;51265;53.972;12.286;2022-10-16T04:10:33;16.02;;;7.20;;
64826;SDS011;51265;53.972;12.286;2022-10-16T04:12:59;9.32;;;6.22;;
64826;SDS011;51265;53.972;12.286;2022-10-16T04:15:25;11.23;;;6.35;;
64826;SDS011;51265;53.972;12.286;2022-10-16T04:17:51;9.57;;;6.05;;
64826;SDS011;51265;53.972;12.286;2022-10-16T04:20:17;8.20;;;5.68;;
64826;SDS011;51265;53.972;12.286;2022-10-16T04:22:44;13.50;;;5.57;;
64826;SDS011;51265;53.972;12.286;2022-10-16T04:25:10;8.88;;;5.72;;
64826;SDS011;51265;53.972;12.286;2022-10-16T04:27:37;8.55;;;5.40;;
64826;SDS011;51265;53.972;12.286;2022-10-16T04:30:04;8.38;;;5.28;;
64826;SDS011;51265;53.972;12.286;2022-10-16T04:32:30;8.13;;;5.80;;
64826;SDS011;51265;53.972;12.286;2022-10-16T04:34:56;7.30;;;5.60;;
64826;SDS011;51265;53.972;12.286;2022-10-16T04:37:26;8.27;;;5.43;;
64826;SDS011;51265;53.972;12.286;2022-10-16T04:39:52;8.15;;;5.35;;
64826;SDS011;51265;53.972;12.286;2022-10-16T04:42:19;10.40;;;4.82;;
64826;SDS011;51265;53.972;12.286;2022-10-16T04:44:45;7.03;;;5.05;;
64826;SDS011;51265;53.972;12.286;2022-10-16T04:47:11;8.73;;;5.65;;
64826;SDS011;51265;53.972;12.286;2022-10-16T04:49:38;14.82;;;5.07;;
64826;SDS011;51265;53.972;12.286;2022-10-16T04:52:04;5.85;;;4.70;;
64826;SDS011;51265;53.972;12.286;2022-10-16T04:54:29;8.52;;;4.60;;
64826;SDS011;51265;53.972;12.286;2022-10-16T04:56:56;12.20;;;4.78;;
64826;SDS011;51265;53.972;12.286;2022-10-16T04:59:22;9.30;;;4.35;;
64826;SDS011;51265;53.972;12.286;2022-10-16T05:01:49;8.38;;;4.47;;
64826;SDS011;51265;53.972;12.286;2022-10-16T05:04:15;8.77;;;4.30;;
64826;SDS011;51265;53.972;12.286;2022-10-16T05:06:41;11.65;;;4.80;;
64826;SDS011;51265;53.972;12.286;2022-10-16T05:09:08;14.05;;;4.60;;
64826;SDS011;51265;53.972;12.286;2022-10-16T05:11:34;7.43;;;3.90;;
64826;SDS011;51265;53.972;12.286;2022-10-16T05:14:00;8.38;;;4.05;;
64826;SDS011;51265;53.972;12.286;2022-10-16T05:16:26;7.97;;;3.67;;
64826;SDS011;51265;53.972;12.286;2022-10-16T05:18:52;5.93;;;3.88;;
64826;SDS011;51265;53.972;12.286;2022-10-16T05:21:19;6.10;;;3.45;;
64826;SDS011;51265;53.972;12.286;2022-10-16T05:23:46;6.85;;;3.30;;
64826;SDS011;51265;53.972;12.286;2022-10-16T05:26:11;8.30;;;3.90;;
64826;SDS011;51265;53.972;12.286;2022-10-16T05:28:37;6.68;;;3.10;;
64826;SDS011;51265;53.972;12.286;2022-10-16T05:31:04;4.75;;;2.90;;
64826;SDS011;51265;53.972;12.286;2022-10-16T05:33:34;5.75;;;3.10;;
64826;SDS011;51265;53.972;12.286;2022-10-16T05:36:04;6.57;;;2.92;;
64826;SDS011;51265;53.972;12.286;2022-10-16T05:38:33;5.53;;;2.90;;
64826;SDS011;51265;53.972;12.286;2022-10-16T05:41:00;4.13;;;2.80;;
64826;SDS011;51265;53.972;12.286;2022-10-16T05:43:27;5.65;;;3.28;;
64826;SDS011;51265;53.972;12.286;2022-10-16T05:45:57;6.80;;;2.95;;
64826;SDS011;51265;53.972;12.286;2022-10-16T05:48:24;11.57;;;3.13;;
64826;SDS011;51265;53.972;12.286;2022-10-16T05:50:56;5.20;;;3.28;;
64826;SDS011;51265;53.972;12.286;2022-10-16T05:53:26;8.02;;;2.85;;
64826;SDS011;51265;53.972;12.286;2022-10-16T05:55:53;6.82;;;2.83;;
64826;SDS011;51265;53.972;12.286;2022-10-16T05:58:20;6.60;;;3.58;;
64826;SDS011;51265;53.972;12.286;2022-10-16T06:01:09;8.75;;;3.78;;
64826;SDS011;51265;53.972;12.286;2022-10-16T06:03:43;7.40;;;3.17;;
64826;SDS011;51265;53.972;12.286;2022-10-16T06:08:40;4.50;;;2.50;;
64826;SDS011;51265;53.972;12.286;2022-10-16T06:11:08;8.70;;;2.88;;
64826;SDS011;51265;53.972;12.286;2022-10-16T06:13:35;4.35;;;2.92;;
64826;SDS011;51265;53.972;12.286;2022-10-16T06:16:02;8.60;;;2.75;;
64826;SDS011;51265;53.972;12.286;2022-10-16T06:18:29;5.57;;;2.65;;
64826;SDS011;51265;53.972;12.286;2022-10-16T06:20:56;5.47;;;3.05;;
64826;SDS011;51265;53.972;12.286;2022-10-16T06:23:23;4.88;;;2.10;;
64826;SDS011;51265;53.972;12.286;2022-10-16T06:25:49;4.25;;;2.35;;
64826;SDS011;51265;53.972;12.286;2022-10-16T06:28:18;4.70;;;2.60;;
64826;SDS011;51265;53.972;12.286;2022-10-16T06:30:43;8.55;;;2.47;;
64826;SDS011;51265;53.972;12.286;2022-10-16T06:33:10;5.97;;;2.40;;
64826;SDS011;51265;53.972;12.286;2022-10-16T06:35:36;5.68;;;2.42;;
64826;SDS011;51265;53.972;12.286;2022-10-16T06:38:02;5.70;;;2.30;;
64826;SDS011;51265;53.972;12.286;2022-10-16T06:40:27;8.13;;;2.33;;
64826;SDS011;51265;53.972;12.286;2022-10-16T06:42:57;4.82;;;2.40;;
64826;SDS011;51265;53.972;12.286;2022-10-16T06:45:23;3.72;;;2.60;;
64826;SDS011;51265;53.972;12.286;2022-10-16T06:47:49;7.47;;;1.90;;
64826;SDS011;51265;53.972;12.286;2022-10-16T06:50:14;6.72;;;1.90;;
64826;SDS011;51265;53.972;12.286;2022-10-16T06:52:40;3.55;;;1.90;;
64826;SDS011;51265;53.972;12.286;2022-10-16T06:55:06;4.80;;;1.88;;
64826;SDS011;51265;53.972;12.286;2022-10-16T06:57:32;3.63;;;1.70;;
64826;SDS011;51265;53.972;12.286;2022-10-16T06:59:58;3.28;;;1.42;;
64826;SDS011;51265;53.972;12.286;2022-10-16T07:02:24;3.40;;;1.67;;
64826;SDS011;51265;53.972;12.286;2022-10-16T07:04:50;4.20;;;1.65;;
64826;SDS011;51265;53.972;12.286;2022-10-16T07:07:15;2.33;;;1.27;;
64826;SDS011;51265;53.972;12.286;2022-10-16T07:09:41;6.88;;;1.98;;
64826;SDS011;51265;53.972;12.286;2022-10-16T07:12:07;3.35;;;1.70;;
64826;SDS011;51265;53.972;12.286;2022-10-16T07:14:33;5.38;;;1.90;;
64826;SDS011;51265;53.972;12.286;2022-10-16T07:16:59;7.93;;;1.40;;
64826;SDS011;51265;53.972;12.286;2022-10-16T07:19:24;5.70;;;1.35;;
64826;SDS011;51265;53.972;12.286;2022-10-16T07:21:51;1.75;;;1.27;;
64826;SDS011;51265;53.972;12.286;2022-10-16T07:24:16;5.68;;;1.52;;
64826;SDS011;51265;53.972;12.286;2022-10-16T07:26:43;5.88;;;1.38;;
64826;SDS011;51265;53.972;12.286;2022-10-16T07:29:17;6.25;;;1.42;;
64826;SDS011;51265;53.972;12.286;2022-10-16T07:31:46;3.13;;;1.20;;
64826;SDS011;51265;53.972;12.286;2022-10-16T07:34:13;3.78;;;1.38;;
64826;SDS011;51265;53.972;12.286;2022-10-16T07:36:40;4.18;;;1.30;;
64826;SDS011;51265;53.972;12.286;2022-10-16T07:39:06;6.82;;;1.50;;
64826;SDS011;51265;53.972;12.286;2022-10-16T07:41:31;8.68;;;4.40;;
64826;SDS011;51265;53.972;12.286;2022-10-16T07:43:58;9.93;;;3.83;;
64826;SDS011;51265;53.972;12.286;2022-10-16T07:46:27;4.68;;;2.25;;
64826;SDS011;51265;53.972;12.286;2022-10-16T07:48:54;7.72;;;2.72;;
64826;SDS011;51265;53.972;12.286;2022-10-16T07:51:21;5.93;;;3.42;;
64826;SDS011;51265;53.972;12.286;2022-10-16T07:53:48;7.53;;;1.98;;
64826;SDS011;51265;53.972;12.286;2022-10-16T07:56:14;5.53;;;1.27;;
64826;SDS011;51265;53.972;12.286;2022-10-16T07:58:41;2.63;;;1.52;;
64826;SDS011;51265;53.972;12.286;2022-10-16T08:01:08;4.00;;;1.40;;
64826;SDS011;51265;53.972;12.286;2022-10-16T08:03:36;4.03;;;1.42;;
64826;SDS011;51265;53.972;12.286;2022-10-16T08:06:02;6.40;;;1.92;;
64826;SDS011;51265;53.972;12.286;2022-10-16T08:08:29;5.50;;;1.20;;
64826;SDS011;51265;53.972;12.286;2022-10-16T08:10:55;3.88;;;1.10;;
64826;SDS011;51265;53.972;12.286;2022-10-16T08:13:21;9.65;;;1.42;;
64826;SDS011;51265;53.972;12.286;2022-10-16T08:15:47;5.57;;;1.20;;
64826;SDS011;51265;53.972;12.286;2022-10-16T08:18:14;4.75;;;1.40;;
64826;SDS011;51265;53.972;12.286;2022-10-16T08:20:43;2.13;;;1.13;;
64826;SDS011;51265;53.972;12.286;2022-10-16T08:23:10;4.78;;;1.30;;
64826;SDS011;51265;53.972;12.286;2022-10-16T08:25:38;3.38;;;1.30;;
64826;SDS011;51265;53.972;12.286;2022-10-16T08:28:05;4.68;;;1.75;;
64826;SDS011;51265;53.972;12.286;2022-10-16T08:30:33;4.10;;;1.20;;
64826;SDS011;51265;53.972;12.286;2022-10-16T08:32:59;6.70;;;1.27;;
64826;SDS011;51265;53.972;12.286;2022-10-16T08:35:28;4.03;;;1.65;;
64826;SDS011;51265;53.972;12.286;2022-10-16T08:37:54;3.13;;;1.05;;
64826;SDS011;51265;53.972;12.286;2022-10-16T08:40:20;5.53;;;1.00;;
64826;SDS011;51265;53.972;12.286;2022-10-16T08:42:53;4.10;;;1.10;;
64826;SDS011;51265;53.972;12.286;2022-10-16T08:48:35;2.83;;;0.93;;
64826;SDS011;51265;53.972;12.286;2022-10-16T08:51:04;6.00;;;1.20;;
64826;SDS011;51265;53.972;12.286;2022-10-16T08:53:33;5.22;;;1.33;;
64826;SDS011;51265;53.972;12.286;2022-10-16T08:56:08;6.03;;;1.05;;
64826;SDS011;51265;53.972;12.286;2022-10-16T08:58:34;8.02;;;1.20;;
64826;SDS011;51265;53.972;12.286;2022-10-16T09:01:01;2.42;;;1.00;;
64826;SDS011;51265;53.972;12.286;2022-10-16T09:06:52;7.13;;;1.20;;
64826;SDS011;51265;53.972;12.286;2022-10-16T09:12:17;8.73;;;1.23;;
64826;SDS011;51265;53.972;12.286;2022-10-16T09:15:07;1.33;;;0.85;;
64826;SDS011;51265;53.972;12.286;2022-10-16T09:20:36;2.47;;;0.73;;
64826;SDS011;51265;53.972;12.286;2022-10-16T09:23:14;4.40;;;0.95;;
64826;SDS011;51265;53.972;12.286;2022-10-16T09:25:44;4.05;;;0.70;;
64826;SDS011;51265;53.972;12.286;2022-10-16T09:28:13;5.18;;;0.77;;
64826;SDS011;51265;53.972;12.286;2022-10-16T09:30:39;5.88;;;0.95;;
64826;SDS011;51265;53.972;12.286;2022-10-16T09:33:05;4.00;;;0.63;;
64826;SDS011;51265;53.972;12.286;2022-10-16T09:35:37;4.43;;;0.80;;
64826;SDS011;51265;53.972;12.286;2022-10-16T09:41:00;1.00;;;0.60;;
64826;SDS011;51265;53.972;12.286;2022-10-16T09:43:57;1.70;;;0.50;;
64826;SDS011;51265;53.972;12.286;2022-10-16T09:51:29;2.55;;;0.88;;
64826;SDS011;51265;53.972;12.286;2022-10-16T09:53:58;2.05;;;0.63;;
64826;SDS011;51265;53.972;12.286;2022-10-16T09:56:27;1.38;;;0.80;;
64826;SDS011;51265;53.972;12.286;2022-10-16T09:58:59;5.20;;;0.90;;
64826;SDS011;51265;53.972;12.286;2022-10-16T10:01:34;3.47;;;0.80;;
64826;SDS011;51265;53.972;12.286;2022-10-16T10:04:03;4.85;;;1.00;;
64826;SDS011;51265;53.972;12.286;2022-10-16T10:06:31;2.47;;;0.70;;
64826;SDS011;51265;53.972;12.286;2022-10-16T10:14:28;3.47;;;0.70;;
64826;SDS011;51265;53.972;12.286;2022-10-16T10:22:00;3.42;;;0.90;;
64826;SDS011;51265;53.972;12.286;2022-10-16T10:24:26;2.88;;;0.90;;
64826;SDS011;51265;53.972;12.286;2022-10-16T10:27:12;1.95;;;0.65;;
64826;SDS011;51265;53.972;12.286;2022-10-16T10:32:48;2.10;;;1.08;;
64826;SDS011;51265;53.972;12.286;2022-10-16T10:35:26;4.40;;;1.13;;
64826;SDS011;51265;53.972;12.286;2022-10-16T10:41:01;4.00;;;1.17;;
64826;SDS011;51265;53.972;12.286;2022-10-16T10:46:31;1.58;;;0.65;;
64826;SDS011;51265;53.972;12.286;2022-10-16T10:51:58;2.03;;;0.70;;
64826;SDS011;51265;53.972;12.286;2022-10-16T10:54:48;2.55;;;0.85;;
64826;SDS011;51265;53.972;12.286;2022-10-16T11:07:55;6.13;;;0.75;;
64826;SDS011;51265;53.972;12.286;2022-10-16T11:10:27;2.50;;;0.50;;
64826;SDS011;51265;53.972;12.286;2022-10-16T11:13:08;4.38;;;0.70;;
64826;SDS011;51265;53.972;12.286;2022-10-16T11:15:43;1.90;;;0.50;;
64826;SDS011;51265;53.972;12.286;2022-10-16T11:18:16;3.33;;;0.75;;
64826;SDS011;51265;53.972;12.286;2022-10-16T11:20:54;3.17;;;0.80;;
64826;SDS011;51265;53.972;12.286;2022-10-16T11:23:26;1.95;;;0.50;;
64826;SDS011;51265;53.972;12.286;2022-10-16T11:25:57;1.85;;;0.68;;
64826;SDS011;51265;53.972;12.286;2022-10-16T11:28:29;0.68;;;0.38;;
64826;SDS011;51265;53.972;12.286;2022-10-16T11:41:27;1.23;;;0.40;;
64826;SDS011;51265;53.972;12.286;2022-10-16T11:44:14;2.47;;;0.45;;
64826;SDS011;51265;53.972;12.286;2022-10-16T11:46:48;3.13;;;0.45;;
64826;SDS011;51265;53.972;12.286;2022-10-16T11:49:24;3.88;;;0.45;;
64826;SDS011;51265;53.972;12.286;2022-10-16T11:57:16;3.03;;;0.40;;
64826;SDS011;51265;53.972;12.286;2022-10-16T11:59:51;2.70;;;0.52;;
64826;SDS011;51265;53.972;12.286;2022-10-16T12:02:30;3.85;;;1.17;;
64826;SDS011;51265;53.972;12.286;2022-10-16T12:05:33;6.35;;;0.65;;
64826;SDS011;51265;53.972;12.286;2022-10-16T12:08:15;4.28;;;0.40;;
64826;SDS011;51265;53.972;12.286;2022-10-16T12:10:42;0.77;;;0.40;;
64826;SDS011;51265;53.972;12.286;2022-10-16T12:18:38;3.55;;;0.40;;
64826;SDS011;51265;53.972;12.286;2022-10-16T12:21:09;1.20;;;0.40;;
64826;SDS011;51265;53.972;12.286;2022-10-16T12:23:46;2.88;;;0.50;;
64826;SDS011;51265;53.972;12.286;2022-10-16T12:26:24;0.80;;;0.43;;
64826;SDS011;51265;53.972;12.286;2022-10-16T12:28:52;4.57;;;0.60;;
64826;SDS011;51265;53.972;12.286;2022-10-16T12:31:18;2.58;;;0.52;;
64826;SDS011;51265;53.972;12.286;2022-10-16T12:33:56;5.53;;;0.40;;
64826;SDS011;51265;53.972;12.286;2022-10-16T12:38:59;1.60;;;0.38;;
64826;SDS011;51265;53.972;12.286;2022-10-16T12:44:00;1.50;;;0.47;;
64826;SDS011;51265;53.972;12.286;2022-10-16T12:49:20;4.32;;;0.68;;
64826;SDS011;51265;53.972;12.286;2022-10-16T12:51:50;2.47;;;0.50;;
64826;SDS011;51265;53.972;12.286;2022-10-16T12:57:18;3.03;;;0.57;;
64826;SDS011;51265;53.972;12.286;2022-10-16T13:00:10;3.00;;;0.45;;
64826;SDS011;51265;53.972;12.286;2022-10-16T13:09:04;3.00;;;0.63;;
64826;SDS011;51265;53.972;12.286;2022-10-16T13:14:58;4.50;;;0.57;;
64826;SDS011;51265;53.972;12.286;2022-10-16T13:24:10;5.03;;;0.60;;
64826;SDS011;51265;53.972;12.286;2022-10-16T13:29:18;3.17;;;0.40;;
64826;SDS011;51265;53.972;12.286;2022-10-16T13:31:45;1.77;;;0.30;;
64826;SDS011;51265;53.972;12.286;2022-10-16T13:34:15;5.38;;;0.50;;
64826;SDS011;51265;53.972;12.286;2022-10-16T13:39:15;3.00;;;0.40;;
64826;SDS011;51265;53.972;12.286;2022-10-16T13:44:42;4.30;;;0.50;;
64826;SDS011;51265;53.972;12.286;2022-10-16T13:47:14;2.22;;;0.35;;
64826;SDS011;51265;53.972;12.286;2022-10-16T13:49:45;2.45;;;0.80;;
64826;SDS011;51265;53.972;12.286;2022-10-16T13:52:19;2.38;;;0.52;;
64826;SDS011;51265;53.972;12.286;2022-10-16T13:54:46;3.45;;;0.47;;
64826;SDS011;51265;53.972;12.286;2022-10-16T13:57:16;2.42;;;0.40;;
64826;SDS011;51265;53.972;12.286;2022-10-16T13:59:43;2.20;;;0.30;;
64826;SDS011;51265;53.972;12.286;2022-10-16T14:04:50;6.32;;;0.30;;
64826;SDS011;51265;53.972;12.286;2022-10-16T14:07:22;2.20;;;0.32;;
64826;SDS011;51265;53.972;12.286;2022-10-16T14:09:51;2.08;;;0.40;;
64826;SDS011;51265;53.972;12.286;2022-10-16T14:12:19;2.78;;;0.52;;
64826;SDS011;51265;53.972;12.286;2022-10-16T14:14:46;4.05;;;1.30;;
64826;SDS011;51265;53.972;12.286;2022-10-16T14:17:33;2.97;;;0.40;;
64826;SDS011;51265;53.972;12.286;2022-10-16T14:20:02;2.40;;;0.80;;
64826;SDS011;51265;53.972;12.286;2022-10-16T14:25:01;6.68;;;0.40;;
64826;SDS011;51265;53.972;12.286;2022-10-16T14:27:35;3.45;;;0.40;;
64826;SDS011;51265;53.972;12.286;2022-10-16T14:32:39;3.60;;;0.45;;
64826;SDS011;51265;53.972;12.286;2022-10-16T14:35:26;2.95;;;0.35;;
64826;SDS011;51265;53.972;12.286;2022-10-16T14:37:57;2.72;;;0.50;;
64826;SDS011;51265;53.972;12.286;2022-10-16T14:40:25;1.95;;;0.40;;
64826;SDS011;51265;53.972;12.286;2022-10-16T14:42:53;1.30;;;0.30;;
64826;SDS011;51265;53.972;12.286;2022-10-16T14:45:21;1.10;;;0.45;;
64826;SDS011;51265;53.972;12.286;2022-10-16T14:47:53;5.30;;;0.63;;
64826;SDS011;51265;53.972;12.286;2022-10-16T14:50:21;1.38;;;0.45;;
64826;SDS011;51265;53.972;12.286;2022-10-16T14:52:47;5.93;;;0.80;;
64826;SDS011;51265;53.972;12.286;2022-10-16T14:55:13;2.97;;;0.80;;
64826;SDS011;51265;53.972;12.286;2022-10-16T14:57:40;2.70;;;0.70;;
64826;SDS011;51265;53.972;12.286;2022-10-16T15:00:22;3.22;;;0.70;;
64826;SDS011;51265;53.972;12.286;2022-10-16T15:02:49;3.25;;;0.63;;
64826;SDS011;51265;53.972;12.286;2022-10-16T15:07:46;3.67;;;0.70;;
64826;SDS011;51265;53.972;12.286;2022-10-16T15:10:12;2.95;;;0.50;;
64826;SDS011;51265;53.972;12.286;2022-10-16T15:12:39;5.25;;;0.60;;
64826;SDS011;51265;53.972;12.286;2022-10-16T15:17:57;3.45;;;1.00;;
64826;SDS011;51265;53.972;12.286;2022-10-16T15:20:30;2.80;;;0.50;;
64826;SDS011;51265;53.972;12.286;2022-10-16T15:23:03;1.73;;;0.57;;
64826;SDS011;51265;53.972;12.286;2022-10-16T15:25:43;1.98;;;0.73;;
64826;SDS011;51265;53.972;12.286;2022-10-16T15:28:12;4.32;;;0.40;;
64826;SDS011;51265;53.972;12.286;2022-10-16T15:30:39;3.13;;;0.52;;
64826;SDS011;51265;53.972;12.286;2022-10-16T15:33:10;3.15;;;1.20;;
64826;SDS011;51265;53.972;12.286;2022-10-16T15:35:41;5.20;;;1.90;;
64826;SDS011;51265;53.972;12.286;2022-10-16T15:38:10;7.72;;;0.65;;
64826;SDS011;51265;53.972;12.286;2022-10-16T15:40:38;4.68;;;1.23;;
64826;SDS011;51265;53.972;12.286;2022-10-16T15:43:03;5.72;;;1.33;;
64826;SDS011;51265;53.972;12.286;2022-10-16T15:45:29;6.15;;;0.68;;
64826;SDS011;51265;53.972;12.286;2022-10-16T15:47:55;2.67;;;0.70;;
64826;SDS011;51265;53.972;12.286;2022-10-16T15:50:21;4.32;;;1.30;;
64826;SDS011;51265;53.972;12.286;2022-10-16T15:52:47;5.65;;;1.20;;
64826;SDS011;51265;53.972;12.286;2022-10-16T15:55:13;4.30;;;2.45;;
64826;SDS011;51265;53.972;12.286;2022-10-16T15:57:40;6.03;;;1.95;;
64826;SDS011;51265;53.972;12.286;2022-10-16T16:00:16;7.13;;;2.67;;
64826;SDS011;51265;53.972;12.286;2022-10-16T16:02:44;5.15;;;2.17;;
64826;SDS011;51265;53.972;12.286;2022-10-16T16:05:16;6.80;;;1.75;;
64826;SDS011;51265;53.972;12.286;2022-10-16T16:07:42;6.68;;;2.92;;
64826;SDS011;51265;53.972;12.286;2022-10-16T16:10:09;10.82;;;2.65;;
64826;SDS011;51265;53.972;12.286;2022-10-16T16:12:36;4.63;;;1.80;;
64826;SDS011;51265;53.972;12.286;2022-10-16T16:15:03;4.95;;;1.15;;
64826;SDS011;51265;53.972;12.286;2022-10-16T16:17:33;3.80;;;0.88;;
64826;SDS011;51265;53.972;12.286;2022-10-16T16:19:59;4.95;;;2.08;;
64826;SDS011;51265;53.972;12.286;2022-10-16T16:22:25;8.38;;;1.10;;
64826;SDS011;51265;53.972;12.286;2022-10-16T16:24:52;3.50;;;1.00;;
64826;SDS011;51265;53.972;12.286;2022-10-16T16:27:18;4.88;;;0.82;;
64826;SDS011;51265;53.972;12.286;2022-10-16T16:29:45;3.60;;;1.00;;
64826;SDS011;51265;53.972;12.286;2022-10-16T16:32:11;3.30;;;0.80;;
64826;SDS011;51265;53.972;12.286;2022-10-16T16:34:38;4.78;;;1.05;;
64826;SDS011;51265;53.972;12.286;2022-10-16T16:37:04;4.50;;;1.40;;
64826;SDS011;51265;53.972;12.286;2022-10-16T16:39:30;3.13;;;1.10;;
64826;SDS011;51265;53.972;12.286;2022-10-16T16:41:56;3.00;;;1.15;;
64826;SDS011;51265;53.972;12.286;2022-10-16T16:44:24;3.83;;;0.80;;
64826;SDS011;51265;53.972;12.286;2022-10-16T16:46:50;2.08;;;0.90;;
64826;SDS011;51265;53.972;12.286;2022-10-16T16:49:17;3.75;;;1.13;;
64826;SDS011;51265;53.972;12.286;2022-10-16T16:51:43;4.68;;;1.00;;
64826;SDS011;51265;53.972;12.286;2022-10-16T16:54:10;5.57;;;0.80;;
64826;SDS011;51265;53.972;12.286;2022-10-16T16:56:38;2.47;;;0.80;;
64826;SDS011;51265;53.972;12.286;2022-10-16T16:59:04;2.97;;;1.05;;
64826;SDS011;51265;53.972;12.286;2022-10-16T17:01:30;9.82;;;0.90;;
64826;SDS011;51265;53.972;12.286;2022-10-16T17:03:57;3.40;;;0.80;;